Time;durP1;ratioP1;P1;durP2;ratioP2;P2;SDS_P1;SDS_P2;PMS_P1;PMS_P2;Temp;Humidity;BMP_temperature;BMP_pressure;BME280_temperature;BME280_humidity;BME280_pressure;Samples;Min_cycle;Max_cycle;Signal;HPM_P1;HPM_P2
2021/09/21 00:01:21;;;;;;;3.30;1.90;;;11.10;99.90;;;;;;4890285;29;20375;-72
2021/09/21 00:03:47;;;;;;;5.20;2.63;;;11.10;99.90;;;;;;4890514;29;20033;-72
2021/09/21 00:06:13;;;;;;;2.97;1.85;;;11.10;99.90;;;;;;4889999;29;20085;-72
2021/09/21 00:08:39;;;;;;;6.70;2.47;;;11.10;99.90;;;;;;4890074;29;20028;-72
2021/09/21 00:11:06;;;;;;;5.32;2.50;;;11.20;99.90;;;;;;4890313;29;20083;-72
2021/09/21 00:13:33;;;;;;;3.47;1.88;;;11.20;99.90;;;;;;4890107;29;20036;-72
2021/09/21 00:15:59;;;;;;;3.00;1.88;;;11.20;99.90;;;;;;4890343;29;20554;-72
2021/09/21 00:18:25;;;;;;;8.30;2.60;;;11.20;99.90;;;;;;4890311;29;20029;-72
2021/09/21 00:20:51;;;;;;;4.40;2.03;;;11.20;99.90;;;;;;4890387;29;20029;-72
2021/09/21 00:23:17;;;;;;;4.60;2.30;;;11.20;99.90;;;;;;4890628;29;20085;-72
2021/09/21 00:25:43;;;;;;;6.45;2.45;;;11.20;99.90;;;;;;4873665;29;20778;-72
2021/09/21 00:28:08;;;;;;;3.78;2.35;;;11.20;99.90;;;;;;4889951;29;20056;-72
2021/09/21 00:30:34;;;;;;;5.95;2.88;;;11.20;99.90;;;;;;4890084;29;20052;-72
2021/09/21 00:33:04;;;;;;;4.95;2.45;;;11.20;99.90;;;;;;4890303;29;20037;-72
2021/09/21 00:35:32;;;;;;;5.03;2.72;;;11.20;99.90;;;;;;4873484;29;20120;-72
2021/09/21 00:37:58;;;;;;;5.72;2.25;;;11.20;99.90;;;;;;4890411;29;20076;-72
2021/09/21 00:40:24;;;;;;;5.78;2.72;;;11.20;99.90;;;;;;4890182;29;20033;-72
2021/09/21 00:42:51;;;;;;;4.82;2.40;;;11.20;99.90;;;;;;4890205;29;20054;-71
2021/09/21 00:45:24;;;;;;;4.72;2.33;;;11.30;99.90;;;;;;4890313;29;20048;-71
2021/09/21 00:47:53;;;;;;;3.55;2.42;;;11.30;99.90;;;;;;4889842;29;20100;-72
2021/09/21 00:50:20;;;;;;;3.60;2.20;;;11.30;99.90;;;;;;4890546;29;20029;-71
2021/09/21 00:52:48;;;;;;;4.07;2.45;;;11.30;99.90;;;;;;4890070;29;20021;-72
2021/09/21 00:55:14;;;;;;;4.32;2.05;;;11.30;99.90;;;;;;4889884;29;20065;-71
2021/09/21 00:57:41;;;;;;;4.15;2.22;;;11.30;99.90;;;;;;4890025;29;20494;-71
2021/09/21 01:00:09;;;;;;;13.25;2.95;;;11.30;99.90;;;;;;4890127;29;20044;-71
2021/09/21 01:02:34;;;;;;;5.53;2.50;;;11.30;99.90;;;;;;4889702;29;20052;-71
2021/09/21 01:05:01;;;;;;;5.32;2.60;;;11.40;99.90;;;;;;4889905;29;20037;-72
2021/09/21 01:07:26;;;;;;;6.07;3.00;;;11.40;99.90;;;;;;4890087;29;20493;-71
2021/09/21 01:10:04;;;;;;;7.57;2.78;;;11.40;99.90;;;;;;4890025;29;20025;-72
2021/09/21 01:12:31;;;;;;;3.30;2.05;;;11.40;99.90;;;;;;4889448;29;20064;-72
2021/09/21 01:14:57;;;;;;;5.18;2.58;;;11.40;99.90;;;;;;4889548;29;20052;-72
2021/09/21 01:17:23;;;;;;;5.10;2.25;;;11.40;99.90;;;;;;4890044;29;20029;-72
2021/09/21 01:19:48;;;;;;;7.90;2.70;;;11.40;99.90;;;;;;4893093;29;20036;-72
2021/09/21 01:22:14;;;;;;;5.68;2.70;;;11.40;99.90;;;;;;4893001;29;20063;-72
2021/09/21 01:24:39;;;;;;;4.40;2.22;;;11.40;99.90;;;;;;4893076;29;20033;-72
2021/09/21 01:27:05;;;;;;;4.05;2.25;;;11.40;99.90;;;;;;4893503;29;20077;-72
2021/09/21 01:29:30;;;;;;;5.10;2.33;;;11.40;99.90;;;;;;4892609;29;20053;-72
2021/09/21 01:31:56;;;;;;;4.38;2.75;;;11.40;99.90;;;;;;4893214;29;20108;-72
2021/09/21 01:34:22;;;;;;;7.03;2.60;;;11.40;99.90;;;;;;4893339;29;20037;-73
2021/09/21 01:36:48;;;;;;;4.75;1.85;;;11.40;99.90;;;;;;4892803;29;20040;-72
2021/09/21 01:39:14;;;;;;;5.50;2.92;;;11.40;99.90;;;;;;4893196;29;20029;-72
2021/09/21 01:41:40;;;;;;;4.65;2.38;;;11.40;99.90;;;;;;4876011;29;20128;-72
2021/09/21 01:44:06;;;;;;;3.80;2.42;;;11.40;99.90;;;;;;4892800;29;20085;-72
2021/09/21 01:46:31;;;;;;;5.68;2.33;;;11.40;99.90;;;;;;4892751;29;20029;-72
2021/09/21 01:48:57;;;;;;;5.38;2.72;;;11.50;99.90;;;;;;4892715;29;20040;-73
2021/09/21 01:51:38;;;;;;;5.18;2.58;;;11.40;99.90;;;;;;4892966;29;20029;-72
2021/09/21 01:54:19;;;;;;;3.65;2.17;;;11.50;99.90;;;;;;4892917;29;20032;-72
2021/09/21 01:59:29;;;;;;;3.65;2.08;;;11.50;99.90;;;;;;4892598;29;20110;-73
2021/09/21 02:01:55;;;;;;;3.75;2.50;;;11.50;99.90;;;;;;4892518;29;20049;-72
2021/09/21 02:04:22;;;;;;;3.85;2.25;;;11.50;99.90;;;;;;4892166;29;20041;-72
2021/09/21 02:06:47;;;;;;;9.13;3.10;;;11.50;99.90;;;;;;4892643;29;20073;-72
2021/09/21 02:09:14;;;;;;;5.53;3.03;;;11.50;99.90;;;;;;4892310;29;20037;-71
2021/09/21 02:11:41;;;;;;;4.82;2.78;;;11.50;99.90;;;;;;4875086;29;20029;-72
2021/09/21 02:14:10;;;;;;;3.88;2.60;;;11.50;99.90;;;;;;4892273;29;20486;-72
2021/09/21 02:16:36;;;;;;;4.10;2.38;;;11.50;99.90;;;;;;4892320;29;20040;-72
2021/09/21 02:19:02;;;;;;;6.80;2.83;;;11.60;99.90;;;;;;4891775;29;20029;-72
2021/09/21 02:21:28;;;;;;;3.65;2.13;;;11.60;99.90;;;;;;4891745;29;20100;-72
2021/09/21 02:23:56;;;;;;;4.90;2.28;;;11.60;99.90;;;;;;4891947;29;20033;-73
2021/09/21 02:26:22;;;;;;;6.15;2.53;;;11.60;99.90;;;;;;4891946;29;20033;-72
2021/09/21 02:28:51;;;;;;;3.55;2.00;;;11.60;99.90;;;;;;4891989;29;20037;-72
2021/09/21 02:31:16;;;;;;;4.95;2.72;;;11.60;99.90;;;;;;4891063;29;20053;-72
2021/09/21 02:33:43;;;;;;;4.15;2.42;;;11.60;99.90;;;;;;4891714;29;20043;-72
2021/09/21 02:36:08;;;;;;;3.95;2.22;;;11.60;99.90;;;;;;4892278;29;20067;-72
2021/09/21 02:38:36;;;;;;;7.28;2.63;;;11.60;99.90;;;;;;4891886;29;20029;-72
2021/09/21 02:41:02;;;;;;;5.53;2.63;;;11.60;99.90;;;;;;4891385;29;20040;-72
2021/09/21 02:43:27;;;;;;;5.65;2.47;;;11.60;99.90;;;;;;4892122;29;20063;-72
2021/09/21 02:45:54;;;;;;;6.15;2.53;;;11.60;99.90;;;;;;4891459;29;20029;-72
2021/09/21 02:48:20;;;;;;;7.13;2.60;;;11.50;99.90;;;;;;4891877;29;20081;-72
2021/09/21 02:50:45;;;;;;;3.83;1.75;;;11.50;99.90;;;;;;4891877;29;20041;-72
2021/09/21 02:53:11;;;;;;;4.57;2.42;;;11.50;99.90;;;;;;4891366;29;20068;-72
2021/09/21 02:55:37;;;;;;;6.20;2.55;;;11.50;99.90;;;;;;4891506;29;20037;-72
2021/09/21 02:58:03;;;;;;;4.28;2.58;;;11.50;99.90;;;;;;4874855;29;20025;-72
2021/09/21 03:00:29;;;;;;;5.22;2.20;;;11.50;99.90;;;;;;4891270;29;20040;-72
2021/09/21 03:02:58;;;;;;;5.10;2.10;;;11.60;99.90;;;;;;4891335;29;20045;-72
2021/09/21 03:05:30;;;;;;;7.03;2.58;;;11.40;99.90;;;;;;4891649;29;20021;-72
2021/09/21 03:08:13;;;;;;;5.95;2.30;;;11.50;99.90;;;;;;4891321;29;20029;-72
2021/09/21 03:13:46;;;;;;;3.33;2.03;;;11.50;99.90;;;;;;4891602;29;20044;-72
2021/09/21 03:18:57;;;;;;;5.20;2.15;;;11.50;99.90;;;;;;4891491;29;20040;-72
2021/09/21 03:21:24;;;;;;;4.13;1.80;;;11.50;99.90;;;;;;4890627;29;20041;-72
2021/09/21 03:23:49;;;;;;;2.47;1.77;;;11.40;99.90;;;;;;4891425;29;20049;-72
2021/09/21 03:26:15;;;;;;;4.95;2.35;;;11.40;99.90;;;;;;4891239;29;20029;-72
2021/09/21 03:28:41;;;;;;;4.93;2.67;;;11.40;99.90;;;;;;4890584;29;20485;-72
2021/09/21 03:31:07;;;;;;;3.90;2.13;;;11.40;99.90;;;;;;4890794;29;20120;-72
2021/09/21 03:33:32;;;;;;;4.60;2.13;;;11.40;99.90;;;;;;4890949;29;20072;-73
2021/09/21 03:35:59;;;;;;;4.65;2.25;;;11.40;99.90;;;;;;4890853;29;20041;-72
2021/09/21 03:38:26;;;;;;;8.50;2.28;;;11.40;99.90;;;;;;4891200;29;20044;-73
2021/09/21 03:40:53;;;;;;;5.22;2.60;;;11.40;99.90;;;;;;4890744;29;20029;-72
2021/09/21 03:43:18;;;;;;;8.55;3.00;;;11.40;99.90;;;;;;4890760;29;20522;-72
2021/09/21 03:45:44;;;;;;;4.18;2.10;;;11.40;99.90;;;;;;4890501;29;20057;-72
2021/09/21 03:48:10;;;;;;;4.72;2.40;;;11.40;99.90;;;;;;4873823;29;20057;-72
2021/09/21 03:50:36;;;;;;;6.25;2.47;;;11.50;99.90;;;;;;4890550;29;20029;-72
2021/09/21 03:53:03;;;;;;;5.40;2.75;;;11.50;99.90;;;;;;4890830;29;20037;-73
2021/09/21 03:55:29;;;;;;;4.30;2.47;;;11.50;99.90;;;;;;4890831;29;20054;-72
2021/09/21 03:57:54;;;;;;;5.60;2.95;;;11.50;99.90;;;;;;4890267;29;20029;-73
2021/09/21 04:00:20;;;;;;;8.25;4.00;;;11.60;99.90;;;;;;4890900;29;20037;-72
2021/09/21 04:02:46;;;;;;;8.10;3.10;;;11.60;99.90;;;;;;4890547;29;20032;-72
2021/09/21 04:05:11;;;;;;;6.53;3.30;;;11.60;99.90;;;;;;4890188;29;20052;-72
2021/09/21 04:07:37;;;;;;;4.88;3.10;;;11.60;99.90;;;;;;4890519;29;20029;-72
2021/09/21 04:10:04;;;;;;;5.60;2.72;;;11.60;99.90;;;;;;4890345;29;20056;-73
2021/09/21 04:12:31;;;;;;;6.30;2.97;;;11.70;99.90;;;;;;4890102;29;20056;-72
2021/09/21 04:14:57;;;;;;;6.18;3.55;;;11.70;99.90;;;;;;4890629;29;20040;-73
2021/09/21 04:17:24;;;;;;;9.25;3.45;;;11.70;99.90;;;;;;4890412;29;20041;-72
2021/09/21 04:19:49;;;;;;;5.80;3.08;;;11.70;99.90;;;;;;4890505;29;20037;-72
2021/09/21 04:22:15;;;;;;;6.53;2.58;;;11.70;99.90;;;;;;4890489;29;20041;-72
2021/09/21 04:24:41;;;;;;;4.60;2.70;;;11.70;99.90;;;;;;4890175;29;20045;-72
2021/09/21 04:27:07;;;;;;;5.75;2.45;;;11.70;99.90;;;;;;4890518;29;20029;-72
2021/09/21 04:29:33;;;;;;;12.40;2.30;;;11.70;99.90;;;;;;4873234;29;20551;-71
2021/09/21 04:32:02;;;;;;;6.82;3.42;;;11.70;99.90;;;;;;4890069;29;20084;-73
2021/09/21 04:34:30;;;;;;;5.38;2.88;;;11.70;99.90;;;;;;4890477;29;20033;-72
2021/09/21 04:36:57;;;;;;;4.47;2.60;;;11.70;99.90;;;;;;4890445;29;20033;-72
2021/09/21 04:39:23;;;;;;;6.72;3.20;;;11.70;99.90;;;;;;4889903;29;20375;-72
2021/09/21 04:41:49;;;;;;;5.25;2.47;;;11.70;99.90;;;;;;4890250;29;20041;-72
2021/09/21 04:44:15;;;;;;;4.78;2.83;;;11.70;99.90;;;;;;4890033;29;20108;-72
2021/09/21 04:46:41;;;;;;;7.95;2.97;;;11.70;99.90;;;;;;4889691;29;20043;-72
2021/09/21 04:49:08;;;;;;;7.15;3.05;;;11.70;99.90;;;;;;4890334;29;20044;-72
2021/09/21 04:51:34;;;;;;;6.03;3.10;;;11.70;99.90;;;;;;4890101;29;20050;-72
2021/09/21 04:54:00;;;;;;;6.30;3.08;;;11.70;99.90;;;;;;4891852;29;20026;-72
2021/09/21 04:56:27;;;;;;;6.22;3.10;;;11.70;99.90;;;;;;4894043;29;20026;-72
2021/09/21 04:58:53;;;;;;;6.70;3.20;;;11.70;99.90;;;;;;4893530;29;20033;-72
2021/09/21 05:01:19;;;;;;;9.48;3.35;;;11.60;99.90;;;;;;4892628;29;20099;-71
2021/09/21 05:03:45;;;;;;;5.75;2.50;;;11.60;99.90;;;;;;4893762;29;20029;-72
2021/09/21 05:06:11;;;;;;;4.53;2.53;;;11.60;99.90;;;;;;4893275;29;20466;-72
2021/09/21 05:08:36;;;;;;;5.28;2.88;;;11.60;99.90;;;;;;4893494;29;20052;-72
2021/09/21 05:11:02;;;;;;;5.35;2.88;;;11.60;99.90;;;;;;4893688;29;20033;-72
2021/09/21 05:13:27;;;;;;;6.85;3.40;;;11.60;99.90;;;;;;4893235;29;20116;-73
2021/09/21 05:15:53;;;;;;;5.22;2.83;;;11.60;99.90;;;;;;4893440;29;20037;-72
2021/09/21 05:18:19;;;;;;;5.40;3.15;;;11.60;99.90;;;;;;4893794;29;20037;-72
2021/09/21 05:20:45;;;;;;;8.05;3.28;;;11.60;99.90;;;;;;4893108;29;20025;-72
2021/09/21 05:23:10;;;;;;;9.27;3.50;;;11.60;99.90;;;;;;4893164;29;20049;-72
2021/09/21 05:25:36;;;;;;;7.97;3.67;;;11.60;99.90;;;;;;4893290;29;20029;-72
2021/09/21 05:28:02;;;;;;;8.38;3.28;;;11.60;99.90;;;;;;4892746;29;20072;-72
2021/09/21 05:30:28;;;;;;;4.93;3.13;;;11.60;99.90;;;;;;4891781;29;20056;-71
2021/09/21 05:32:54;;;;;;;6.75;3.63;;;11.60;99.90;;;;;;4891204;29;20092;-73
2021/09/21 05:35:20;;;;;;;4.30;2.97;;;11.60;99.90;;;;;;4891685;29;20033;-72
2021/09/21 05:37:45;;;;;;;8.20;3.55;;;11.60;99.90;;;;;;4891537;29;20089;-72
2021/09/21 05:40:16;;;;;;;8.43;3.70;;;11.60;99.90;;;;;;4891381;29;20065;-72
2021/09/21 05:42:45;;;;;;;6.32;3.35;;;11.60;99.90;;;;;;4884133;29;20865;-71
2021/09/21 05:45:11;;;;;;;7.50;3.22;;;11.60;99.90;;;;;;4884104;29;20444;-70
2021/09/21 05:47:41;;;;;;;5.50;2.80;;;11.60;99.90;;;;;;4879349;29;20098;-70
2021/09/21 05:50:08;;;;;;;11.07;3.75;;;11.60;99.90;;;;;;4877062;29;20040;-70
2021/09/21 05:52:33;;;;;;;6.90;3.55;;;11.70;99.90;;;;;;4872778;29;20025;-71
2021/09/21 05:54:59;;;;;;;5.93;3.63;;;11.60;99.90;;;;;;4881730;29;20052;-71
2021/09/21 05:57:24;;;;;;;7.65;3.92;;;11.70;99.90;;;;;;4885519;29;20159;-71
2021/09/21 05:59:50;;;;;;;7.63;3.50;;;11.70;99.90;;;;;;4889779;29;20035;-71
2021/09/21 06:02:16;;;;;;;11.90;4.45;;;11.70;99.90;;;;;;4890202;29;20041;-71
2021/09/21 06:04:42;;;;;;;5.82;3.22;;;11.70;99.90;;;;;;4889320;29;20064;-71
2021/09/21 06:07:08;;;;;;;9.65;3.40;;;11.70;99.90;;;;;;4889988;29;20065;-71
2021/09/21 06:09:33;;;;;;;11.55;3.80;;;11.80;99.90;;;;;;4886561;29;20058;-70
2021/09/21 06:11:59;;;;;;;6.53;3.13;;;11.80;99.90;;;;;;4890259;29;20040;-72
2021/09/21 06:14:25;;;;;;;6.93;4.00;;;11.80;99.90;;;;;;4891227;29;20085;-72
2021/09/21 06:16:52;;;;;;;8.35;3.85;;;11.80;99.90;;;;;;4890997;29;20033;-71
2021/09/21 06:19:18;;;;;;;5.60;3.53;;;11.80;99.90;;;;;;4870590;29;20562;-71
2021/09/21 06:21:44;;;;;;;5.80;3.50;;;11.80;99.90;;;;;;4886195;29;20092;-71
2021/09/21 06:24:11;;;;;;;8.35;4.00;;;11.80;99.90;;;;;;4871946;29;20081;-71
2021/09/21 06:26:36;;;;;;;5.40;3.10;;;11.80;99.90;;;;;;4881131;29;20025;-71
2021/09/21 06:29:02;;;;;;;5.82;3.13;;;11.80;99.90;;;;;;4882155;29;20036;-71
2021/09/21 06:31:28;;;;;;;7.95;3.58;;;11.80;99.90;;;;;;4883921;29;20064;-71
2021/09/21 06:33:53;;;;;;;8.35;3.88;;;11.90;99.90;;;;;;4879368;29;20032;-72
2021/09/21 06:36:19;;;;;;;7.30;4.00;;;11.90;99.90;;;;;;4871366;29;20053;-71
2021/09/21 06:38:45;;;;;;;10.00;4.95;;;12.00;99.90;;;;;;4871998;29;20061;-70
2021/09/21 06:41:11;;;;;;;8.02;4.35;;;12.00;99.90;;;;;;4871923;29;20521;-71
2021/09/21 06:43:37;;;;;;;8.10;3.88;;;12.00;99.90;;;;;;4884368;29;20025;-71
2021/09/21 06:46:03;;;;;;;9.20;4.15;;;12.00;99.90;;;;;;4889003;29;20057;-72
2021/09/21 06:48:29;;;;;;;11.27;4.93;;;12.00;99.90;;;;;;4889285;29;20065;-71
2021/09/21 06:50:55;;;;;;;15.30;6.82;;;12.10;99.90;;;;;;4887674;29;20041;-71
2021/09/21 06:53:20;;;;;;;13.32;6.03;;;12.10;99.90;;;;;;4885532;29;20049;-71
2021/09/21 06:55:47;;;;;;;12.95;3.75;;;12.20;99.90;;;;;;4888236;29;20041;-71
2021/09/21 06:58:12;;;;;;;8.57;3.40;;;12.20;99.90;;;;;;4871209;29;20033;-71
2021/09/21 07:00:38;;;;;;;10.23;3.13;;;12.30;99.90;;;;;;4871253;29;20546;-71
2021/09/21 07:03:08;;;;;;;6.38;2.92;;;12.30;99.90;;;;;;4871294;29;20037;-71
2021/09/21 07:05:34;;;;;;;6.97;3.63;;;12.30;99.90;;;;;;4885068;29;20061;-71
2021/09/21 07:08:00;;;;;;;13.18;4.30;;;12.40;99.90;;;;;;4883669;29;20037;-73
2021/09/21 07:10:26;;;;;;;7.28;3.88;;;12.40;99.90;;;;;;4889375;29;20033;-71
2021/09/21 07:12:52;;;;;;;6.63;3.35;;;12.40;99.90;;;;;;4889853;29;20041;-71
2021/09/21 07:15:24;;;;;;;6.78;3.60;;;12.50;99.90;;;;;;4889124;29;20041;-71
2021/09/21 07:17:51;;;;;;;9.52;3.53;;;12.50;99.90;;;;;;4889951;29;20025;-71
2021/09/21 07:20:17;;;;;;;6.25;3.92;;;12.60;99.90;;;;;;4881893;29;20040;-71
2021/09/21 07:22:43;;;;;;;7.20;3.72;;;12.60;99.90;;;;;;4872450;29;20041;-72
2021/09/21 07:25:09;;;;;;;5.40;2.72;;;12.70;99.90;;;;;;4889823;29;20077;-71
2021/09/21 07:27:35;;;;;;;6.80;3.42;;;12.70;99.90;;;;;;4889503;29;20375;-71
2021/09/21 07:30:00;;;;;;;10.55;3.28;;;12.70;99.90;;;;;;4888925;29;20108;-71
2021/09/21 07:32:28;;;;;;;5.97;3.20;;;12.70;99.90;;;;;;4886590;29;20037;-72
2021/09/21 07:34:54;;;;;;;6.82;3.47;;;12.80;99.90;;;;;;4882321;29;20029;-72
2021/09/21 07:37:20;;;;;;;10.02;3.95;;;12.90;99.90;;;;;;4872281;29;20096;-71
2021/09/21 07:39:46;;;;;;;7.40;3.22;;;12.90;99.90;;;;;;4874287;29;20033;-71
2021/09/21 07:42:11;;;;;;;12.43;4.35;;;13.00;99.90;;;;;;4875625;29;20083;-72
2021/09/21 07:44:37;;;;;;;5.65;3.40;;;12.90;99.90;;;;;;4873132;29;20029;-71
2021/09/21 07:47:03;;;;;;;10.48;3.30;;;12.90;99.90;;;;;;4878496;29;20025;-71
2021/09/21 07:49:28;;;;;;;5.40;2.83;;;13.00;99.90;;;;;;4880954;29;20101;-71
2021/09/21 07:51:54;;;;;;;7.47;3.38;;;13.00;99.90;;;;;;4882903;29;20068;-71
2021/09/21 07:54:20;;;;;;;8.77;3.35;;;13.00;99.90;;;;;;4876701;29;20034;-71
2021/09/21 07:56:47;;;;;;;6.95;3.22;;;13.10;99.90;;;;;;4880834;29;20548;-72
2021/09/21 07:59:12;;;;;;;5.32;3.20;;;13.10;99.90;;;;;;4883016;29;20036;-70
2021/09/21 08:01:40;;;;;;;7.10;3.00;;;13.20;99.90;;;;;;4868856;29;20042;-70
2021/09/21 08:04:06;;;;;;;5.93;3.30;;;13.20;99.90;;;;;;4874001;29;20033;-71
2021/09/21 08:06:32;;;;;;;6.05;3.10;;;13.20;99.90;;;;;;4879918;29;20061;-71
2021/09/21 08:08:58;;;;;;;8.77;2.90;;;13.30;99.90;;;;;;4885401;29;20029;-72
2021/09/21 08:11:23;;;;;;;8.10;3.55;;;13.30;99.90;;;;;;4876066;29;20048;-72
2021/09/21 08:13:49;;;;;;;13.48;3.85;;;13.30;99.90;;;;;;4881958;29;20036;-70
2021/09/21 08:16:16;;;;;;;8.90;3.53;;;13.40;99.90;;;;;;4879339;29;20120;-71
2021/09/21 08:18:43;;;;;;;5.93;2.92;;;13.40;99.90;;;;;;4876135;29;20034;-71
2021/09/21 08:21:09;;;;;;;5.60;2.85;;;13.30;99.90;;;;;;4869672;29;20035;-72
2021/09/21 08:23:34;;;;;;;6.97;3.53;;;13.50;99.90;;;;;;4888311;29;20448;-71
2021/09/21 08:26:01;;;;;;;6.40;3.40;;;13.60;99.90;;;;;;4886816;29;20037;-71
2021/09/21 08:28:29;;;;;;;8.32;3.67;;;13.60;99.90;;;;;;4875395;29;20169;-71
2021/09/21 08:30:54;;;;;;;7.15;3.50;;;13.70;99.90;;;;;;4873035;29;20054;-71
2021/09/21 08:33:20;;;;;;;8.05;3.33;;;13.70;99.90;;;;;;4873139;29;20037;-75
2021/09/21 08:35:45;;;;;;;9.07;3.00;;;13.80;99.90;;;;;;4873573;29;20037;-70
2021/09/21 08:38:11;;;;;;;8.23;3.50;;;13.90;99.90;;;;;;4884413;29;20493;-71
2021/09/21 08:40:37;;;;;;;6.13;2.70;;;13.90;99.90;;;;;;4891861;29;20039;-71
2021/09/21 08:43:03;;;;;;;4.18;2.97;;;14.00;99.90;;;;;;4881047;29;20041;-71
2021/09/21 08:45:29;;;;;;;7.00;3.33;;;14.10;99.90;;;;;;4872532;29;20146;-71
2021/09/21 08:47:57;;;;;;;5.22;3.00;;;14.20;99.90;;;;;;4873733;29;20038;-72
2021/09/21 08:50:24;;;;;;;13.65;3.45;;;14.30;99.90;;;;;;4873688;29;20133;-71
2021/09/21 08:52:51;;;;;;;11.90;5.22;;;14.40;99.90;;;;;;4871409;29;20029;-71
2021/09/21 08:55:17;;;;;;;8.93;3.33;;;14.40;99.90;;;;;;4873785;29;20497;-71
2021/09/21 08:57:43;;;;;;;10.40;3.28;;;14.60;99.90;;;;;;4873935;29;20471;-71
2021/09/21 09:00:21;;;;;;;11.10;3.22;;;14.70;99.90;;;;;;4885315;29;20040;-71
2021/09/21 09:02:47;;;;;;;5.07;2.35;;;14.80;99.90;;;;;;4891835;29;20105;-71
2021/09/21 09:05:13;;;;;;;6.75;3.60;;;14.90;99.90;;;;;;4882800;29;20097;-71
2021/09/21 09:07:52;;;;;;;6.03;2.97;;;15.00;99.90;;;;;;4880730;29;20044;-73
2021/09/21 09:10:25;;;;;;;6.00;3.05;;;15.00;99.90;;;;;;4888126;29;20063;-72
2021/09/21 09:12:51;;;;;;;5.85;2.72;;;15.10;99.90;;;;;;4881704;29;20061;-72
2021/09/21 09:15:19;;;;;;;3.17;2.20;;;15.20;99.90;;;;;;4866145;29;20045;-73
2021/09/21 09:18:16;;;;;;;5.28;2.58;;;15.10;99.90;;;;;;4891552;29;20044;-73
2021/09/21 09:20:45;;;;;;;6.13;2.92;;;15.20;99.90;;;;;;4865751;29;20045;-73
2021/09/21 09:23:14;;;;;;;6.22;2.70;;;15.10;99.90;;;;;;4875205;29;20053;-73
2021/09/21 09:25:44;;;;;;;10.48;2.53;;;15.10;99.90;;;;;;4879576;29;20040;-73
2021/09/21 09:28:23;;;;;;;6.00;2.50;;;15.10;99.90;;;;;;4890777;29;20617;-74
2021/09/21 09:30:51;;;;;;;8.82;2.90;;;15.20;99.90;;;;;;4890723;29;20049;-74
2021/09/21 09:33:17;;;;;;;7.03;2.40;;;15.10;99.90;;;;;;4891216;29;20033;-74
2021/09/21 09:35:51;;;;;;;6.22;2.83;;;15.10;99.90;;;;;;4890581;29;20089;-74
2021/09/21 09:38:20;;;;;;;6.05;2.67;;;15.10;99.90;;;;;;4888496;29;20632;-73
2021/09/21 09:40:51;;;;;;;6.30;2.47;;;15.10;99.90;;;;;;4881632;29;20784;-74
2021/09/21 09:43:20;;;;;;;5.28;2.63;;;15.10;99.90;;;;;;4883313;29;20055;-73
2021/09/21 09:45:48;;;;;;;7.95;2.03;;;15.20;99.90;;;;;;4880583;29;20104;-72
2021/09/21 09:48:17;;;;;;;9.80;3.22;;;15.20;99.90;;;;;;4856188;29;20062;-70
2021/09/21 09:50:45;;;;;;;5.32;2.25;;;15.20;99.90;;;;;;4884626;29;20409;-71
2021/09/21 09:53:15;;;;;;;3.75;2.20;;;15.20;99.90;;;;;;4883142;29;20025;-73
2021/09/21 09:55:53;;;;;;;4.40;2.35;;;15.40;99.90;;;;;;4880666;29;20040;-72
2021/09/21 09:58:20;;;;;;;8.60;2.50;;;15.30;99.90;;;;;;4871923;29;20420;-73
2021/09/21 10:00:49;;;;;;;6.95;2.78;;;15.30;99.90;;;;;;4854506;29;20026;-73
2021/09/21 10:03:14;;;;;;;6.20;2.88;;;15.50;99.90;;;;;;4855553;29;20041;-71
2021/09/21 10:05:41;;;;;;;4.50;2.30;;;15.40;99.90;;;;;;4872409;29;20109;-72
2021/09/21 10:08:09;;;;;;;6.63;2.80;;;15.40;99.90;;;;;;4872638;29;20030;-72
2021/09/21 10:10:40;;;;;;;6.82;3.22;;;15.50;99.90;;;;;;4870879;29;20033;-73
2021/09/21 10:13:12;;;;;;;8.00;2.55;;;15.40;99.90;;;;;;4872733;29;20117;-73
2021/09/21 10:15:40;;;;;;;6.35;2.72;;;15.40;99.90;;;;;;4872057;29;20035;-72
2021/09/21 10:18:15;;;;;;;10.18;3.03;;;15.50;99.90;;;;;;4878800;29;20029;-71
2021/09/21 10:20:41;;;;;;;7.07;2.47;;;15.50;99.90;;;;;;4883049;29;20037;-72
2021/09/21 10:23:09;;;;;;;6.55;2.85;;;15.50;99.90;;;;;;4890759;29;20577;-73
2021/09/21 10:25:37;;;;;;;4.57;2.33;;;15.50;99.90;;;;;;4873344;29;20390;-74
2021/09/21 10:28:19;;;;;;;9.32;2.72;;;15.50;99.90;;;;;;4890548;29;20040;-73
2021/09/21 10:30:58;;;;;;;4.70;2.40;;;15.60;99.90;;;;;;4890016;29;20049;-74
2021/09/21 10:33:26;;;;;;;4.30;2.45;;;15.60;99.90;;;;;;4890748;29;20068;-71
2021/09/21 10:35:53;;;;;;;5.68;2.85;;;15.60;99.90;;;;;;4889300;29;20033;-72
2021/09/21 10:38:19;;;;;;;6.80;2.50;;;15.60;99.90;;;;;;4889629;29;20446;-74
2021/09/21 10:40:49;;;;;;;3.67;2.33;;;15.60;99.90;;;;;;4890274;29;20100;-73
2021/09/21 10:43:25;;;;;;;5.68;2.97;;;15.60;99.90;;;;;;4890004;29;20045;-73
2021/09/21 10:45:52;;;;;;;9.65;2.30;;;15.70;99.90;;;;;;4873230;29;20473;-73
2021/09/21 10:48:22;;;;;;;7.68;2.80;;;15.70;99.90;;;;;;4890746;29;20033;-73
2021/09/21 10:50:58;;;;;;;12.02;2.88;;;15.70;99.90;;;;;;4889859;29;20037;-73
2021/09/21 10:53:25;;;;;;;7.68;2.92;;;15.80;99.90;;;;;;4889885;29;20052;-74
2021/09/21 10:56:00;;;;;;;7.65;3.03;;;15.80;99.90;;;;;;4890368;29;20058;-72
2021/09/21 10:58:27;;;;;;;7.28;2.80;;;15.70;99.90;;;;;;4889609;29;20584;-74
2021/09/21 11:00:52;;;;;;;6.88;2.67;;;15.70;99.90;;;;;;4889885;29;20053;-72
2021/09/21 11:03:18;;;;;;;5.30;2.67;;;15.70;99.90;;;;;;4889581;29;20076;-73
2021/09/21 11:05:44;;;;;;;5.65;2.47;;;15.90;99.90;;;;;;4889151;29;20044;-74
2021/09/21 11:08:14;;;;;;;5.05;2.70;;;15.90;99.90;;;;;;4889664;29;20033;-74
2021/09/21 11:10:44;;;;;;;5.55;2.72;;;15.90;99.90;;;;;;4889097;29;20025;-74
2021/09/21 11:13:12;;;;;;;5.18;2.53;;;15.90;99.90;;;;;;4889237;29;20032;-73
2021/09/21 11:15:39;;;;;;;7.03;2.83;;;16.00;99.90;;;;;;4881101;29;20040;-74
2021/09/21 11:18:11;;;;;;;7.20;2.88;;;16.00;99.90;;;;;;4870853;29;20757;-74
2021/09/21 11:21:05;;;;;;;7.15;3.15;;;16.00;99.90;;;;;;4871842;29;20479;-73
2021/09/21 11:23:33;;;;;;;6.22;3.15;;;16.00;99.90;;;;;;4885858;29;20041;-73
2021/09/21 11:26:03;;;;;;;7.22;3.45;;;16.10;99.90;;;;;;4889053;29;20044;-73
2021/09/21 11:28:38;;;;;;;4.85;2.45;;;16.10;99.90;;;;;;4889324;29;20033;-73
2021/09/21 11:31:09;;;;;;;6.70;3.30;;;15.80;99.90;;;;;;4867101;29;20423;-71
2021/09/21 11:33:38;;;;;;;3.42;2.42;;;15.90;99.90;;;;;;4870156;29;20033;-74
2021/09/21 11:36:06;;;;;;;6.90;3.10;;;15.90;99.90;;;;;;4870607;29;20029;-74
2021/09/21 11:38:39;;;;;;;6.20;3.00;;;16.00;99.90;;;;;;4863773;29;20041;-74
2021/09/21 11:41:05;;;;;;;5.60;2.75;;;16.10;99.90;;;;;;4870009;29;20025;-71
2021/09/21 11:43:31;;;;;;;6.90;2.97;;;16.10;99.90;;;;;;4868821;29;20074;-72
2021/09/21 11:46:00;;;;;;;6.05;3.03;;;16.20;99.90;;;;;;4869772;29;20029;-74
2021/09/21 11:48:27;;;;;;;6.72;2.95;;;16.30;99.90;;;;;;4866715;29;20133;-75
2021/09/21 11:50:55;;;;;;;4.97;2.28;;;16.40;99.90;;;;;;4866127;29;20034;-74
2021/09/21 11:53:27;;;;;;;6.50;3.17;;;16.50;99.90;;;;;;4869449;29;20047;-73
2021/09/21 11:55:58;;;;;;;7.78;3.17;;;16.50;99.90;;;;;;4869861;29;20041;-74
2021/09/21 11:58:30;;;;;;;4.90;2.90;;;16.50;99.90;;;;;;4870041;29;20026;-74
2021/09/21 12:01:00;;;;;;;6.72;3.42;;;16.60;99.90;;;;;;4869737;29;20085;-74
2021/09/21 12:03:27;;;;;;;5.22;2.33;;;16.60;99.90;;;;;;4869928;29;20525;-73
2021/09/21 12:05:56;;;;;;;5.70;2.97;;;16.70;99.90;;;;;;4870175;29;20025;-72
2021/09/21 12:08:32;;;;;;;15.98;3.00;;;16.80;99.90;;;;;;4868850;29;20033;-72
2021/09/21 12:11:18;;;;;;;8.60;2.60;;;16.90;99.90;;;;;;4870071;29;20038;-71
2021/09/21 12:13:48;;;;;;;8.23;3.55;;;17.00;99.90;;;;;;4868213;29;20077;-73
2021/09/21 12:16:19;;;;;;;10.63;2.80;;;17.10;99.90;;;;;;4869174;29;20037;-76
2021/09/21 12:18:46;;;;;;;8.18;3.30;;;17.10;99.90;;;;;;4867090;29;20029;-73
2021/09/21 12:21:14;;;;;;;6.45;3.05;;;17.00;99.90;;;;;;4852879;29;20094;-72
2021/09/21 12:23:41;;;;;;;6.65;3.38;;;17.10;99.90;;;;;;4863139;29;20041;-72
2021/09/21 12:26:09;;;;;;;5.00;2.55;;;17.10;99.90;;;;;;4869763;29;20037;-74
2021/09/21 12:28:38;;;;;;;7.68;3.42;;;17.20;99.90;;;;;;4864750;29;20041;-73
2021/09/21 12:31:26;;;;;;;7.60;3.17;;;17.30;99.90;;;;;;4874302;29;20411;-74
2021/09/21 12:33:59;;;;;;;7.60;3.28;;;17.30;99.90;;;;;;4861030;29;20046;-74
2021/09/21 12:36:27;;;;;;;8.43;3.00;;;17.40;99.90;;;;;;4876435;29;20036;-74
2021/09/21 12:39:14;;;;;;;6.47;3.47;;;17.40;99.90;;;;;;4877742;29;20029;-73
2021/09/21 12:41:43;;;;;;;12.07;3.13;;;17.40;99.90;;;;;;4880563;29;20097;-72
2021/09/21 12:44:10;;;;;;;8.32;3.00;;;17.30;99.90;;;;;;4875429;29;20029;-72
2021/09/21 12:46:40;;;;;;;5.65;2.45;;;17.40;99.90;;;;;;4870467;29;20025;-74
2021/09/21 12:49:05;;;;;;;6.35;3.15;;;17.40;99.90;;;;;;4878323;29;20029;-71
2021/09/21 12:51:41;;;;;;;5.68;3.22;;;17.60;99.90;;;;;;4882278;29;20054;-74
2021/09/21 12:54:12;;;;;;;6.82;3.60;;;17.60;99.90;;;;;;4882136;29;20036;-71
2021/09/21 12:57:01;;;;;;;7.20;2.58;;;17.70;99.90;;;;;;4888205;29;20081;-73